Time;durP1;ratioP1;P1;durP2;ratioP2;P2;SDS_P1;SDS_P2;PMS_P1;PMS_P2;Temp;Humidity;BMP_temperature;BMP_pressure;BME280_temperature;BME280_humidity;BME280_pressure;Samples;Min_cycle;Max_cycle;Signal;HPM_P1;HPM_P2
2022/06/24 00:00:14;;;;;;;11.07;7.83;;;23.00;99.90;;;;;;5115256;28;20055;-72
2022/06/24 00:02:46;;;;;;;13.93;7.33;;;23.00;99.90;;;;;;5114771;28;20052;-72
2022/06/24 00:05:13;;;;;;;11.40;7.40;;;22.90;99.90;;;;;;5115179;28;20054;-72
2022/06/24 00:07:50;;;;;;;12.77;8.17;;;22.80;99.90;;;;;;5114698;28;21003;-72
2022/06/24 00:10:23;;;;;;;15.97;9.70;;;22.80;99.90;;;;;;5096991;28;20391;-72
2022/06/24 00:12:51;;;;;;;14.63;9.70;;;22.80;99.90;;;;;;5114899;28;20565;-72
2022/06/24 00:15:31;;;;;;;11.50;9.27;;;22.70;99.90;;;;;;5114826;28;20039;-72
2022/06/24 00:17:57;;;;;;;12.07;8.70;;;22.70;99.90;;;;;;5096962;28;20063;-72
2022/06/24 00:20:23;;;;;;;12.07;8.93;;;22.70;99.90;;;;;;5114419;28;20513;-72
2022/06/24 00:22:51;;;;;;;13.77;9.30;;;22.70;99.90;;;;;;5114696;28;20399;-72
2022/06/24 00:25:19;;;;;;;10.93;8.90;;;22.70;99.90;;;;;;5114659;28;20040;-72
2022/06/24 00:28:05;;;;;;;10.57;8.43;;;22.60;99.90;;;;;;5096069;28;20104;-72
2022/06/24 00:30:42;;;;;;;13.33;8.93;;;22.60;99.90;;;;;;5114329;28;20050;-72
2022/06/24 00:33:15;;;;;;;16.00;9.83;;;22.60;99.90;;;;;;5114283;28;20449;-72
2022/06/24 00:35:49;;;;;;;13.67;9.40;;;22.50;99.90;;;;;;5113870;28;20499;-72
2022/06/24 00:38:35;;;;;;;12.18;9.82;;;22.50;99.90;;;;;;5114073;28;20492;-72
2022/06/24 00:41:01;;;;;;;12.33;8.83;;;22.50;99.90;;;;;;5114351;28;20048;-72
2022/06/24 00:43:39;;;;;;;12.13;10.03;;;22.40;99.90;;;;;;5096047;28;20044;-72
2022/06/24 00:46:24;;;;;;;10.87;9.10;;;22.40;99.90;;;;;;5113626;28;20071;-72
2022/06/24 00:48:57;;;;;;;12.40;9.83;;;22.40;99.90;;;;;;5114195;28;20047;-72
2022/06/24 00:51:32;;;;;;;14.47;9.00;;;22.40;99.90;;;;;;5114336;28;20161;-75
2022/06/24 00:53:58;;;;;;;;;;;22.40;99.90;;;;;;5096457;28;20054;-72
2022/06/24 00:56:27;;;;;;;12.77;8.60;;;22.30;99.90;;;;;;5114411;28;19920;-74
2022/06/24 00:58:57;;;;;;;12.63;8.80;;;22.30;99.90;;;;;;5114050;28;20048;-72
2022/06/24 01:01:27;;;;;;;11.43;8.00;;;22.30;99.90;;;;;;5114322;28;20051;-72
2022/06/24 01:03:56;;;;;;;12.47;6.67;;;22.30;99.90;;;;;;5096005;28;20049;-72
2022/06/24 01:06:23;;;;;;;10.37;6.60;;;22.20;99.90;;;;;;5113799;28;20502;-72
2022/06/24 01:08:48;;;;;;;9.70;6.30;;;22.20;99.90;;;;;;5113472;28;20201;-72
2022/06/24 01:11:26;;;;;;;9.00;6.07;;;22.10;99.90;;;;;;5114013;28;20130;-72
2022/06/24 01:13:53;;;;;;;8.37;5.57;;;22.10;99.90;;;;;;5113769;28;20495;-72
2022/06/24 01:16:26;;;;;;;9.47;5.50;;;22.00;99.90;;;;;;5113760;28;20047;-72
2022/06/24 01:19:00;;;;;;;11.33;5.23;;;22.00;99.90;;;;;;5113991;28;20036;-72
2022/06/24 01:21:42;;;;;;;10.85;6.03;;;21.90;99.90;;;;;;5113831;28;20083;-72
2022/06/24 01:24:20;;;;;;;8.53;5.50;;;21.90;99.90;;;;;;5113654;28;20039;-72
2022/06/24 01:26:50;;;;;;;7.23;4.73;;;21.80;99.90;;;;;;5113369;28;20538;-72
2022/06/24 01:29:16;;;;;;;7.07;4.77;;;21.80;99.90;;;;;;5113467;28;20086;-72
2022/06/24 01:31:45;;;;;;;9.03;5.93;;;21.70;99.90;;;;;;5113230;28;20116;-72
2022/06/24 01:34:11;;;;;;;7.40;5.73;;;21.60;99.90;;;;;;5113515;28;20040;-72
2022/06/24 01:36:38;;;;;;;9.50;5.20;;;21.70;99.90;;;;;;5113099;28;20101;-72
2022/06/24 01:39:04;;;;;;;8.93;5.93;;;21.70;99.90;;;;;;5095403;28;20091;-72
2022/06/24 01:41:30;;;;;;;10.23;5.97;;;21.70;99.90;;;;;;5113449;28;20529;-73
2022/06/24 01:43:56;;;;;;;7.17;4.77;;;21.60;99.90;;;;;;5078652;28;20047;-72
2022/06/24 01:46:22;;;;;;;8.63;5.20;;;;;;;;;;5113244;28;20059;-72
2022/06/24 01:48:48;;;;;;;10.00;4.77;;;21.60;99.90;;;;;;5094877;28;20040;-72
2022/06/24 01:51:14;;;;;;;7.43;5.90;;;21.60;99.90;;;;;;5113659;28;20044;-72
2022/06/24 01:53:40;;;;;;;9.17;5.30;;;21.60;99.90;;;;;;5094891;28;20065;-72
2022/06/24 01:56:06;;;;;;;7.37;5.77;;;21.50;99.90;;;;;;5113705;28;20044;-72
2022/06/24 01:58:32;;;;;;;10.33;4.97;;;21.50;99.90;;;;;;5099264;28;20364;-73
2022/06/24 02:00:57;;;;;;;6.43;5.10;;;21.40;99.90;;;;;;5117584;28;20048;-72
2022/06/24 02:03:23;;;;;;;10.17;5.17;;;21.40;99.90;;;;;;5117390;28;20453;-72
2022/06/24 02:05:49;;;;;;;8.90;4.93;;;21.40;99.90;;;;;;5117093;28;20050;-73
2022/06/24 02:08:15;;;;;;;7.43;4.23;;;21.50;99.90;;;;;;5099151;28;20088;-72
2022/06/24 02:13:26;;;;;;;8.50;4.80;;;21.50;99.90;;;;;;5117363;28;20094;-72
2022/06/24 02:16:00;;;;;;;8.23;4.50;;;21.50;99.90;;;;;;5116924;28;20070;-72
2022/06/24 02:18:28;;;;;;;8.43;5.32;;;21.50;99.90;;;;;;5082337;28;20047;-72
2022/06/24 02:20:55;;;;;;;11.47;4.13;;;21.50;99.90;;;;;;5116821;28;20052;-73
2022/06/24 02:23:21;;;;;;;8.93;4.40;;;21.50;99.90;;;;;;5117008;28;20046;-72
2022/06/24 02:25:48;;;;;;;8.10;4.63;;;21.50;99.90;;;;;;5116784;28;20100;-73
2022/06/24 02:28:14;;;;;;;10.83;4.73;;;21.40;99.90;;;;;;5116763;28;20043;-72
2022/06/24 02:30:41;;;;;;;7.13;4.00;;;21.40;99.90;;;;;;5116615;28;20048;-72
2022/06/24 02:33:08;;;;;;;5.83;4.13;;;21.40;99.90;;;;;;5116790;28;20475;-72
2022/06/24 02:35:34;;;;;;;9.53;4.80;;;21.40;99.90;;;;;;5116491;28;20506;-72
2022/06/24 02:38:00;;;;;;;10.23;3.97;;;21.40;99.90;;;;;;5116510;28;20039;-72
2022/06/24 02:43:18;;;;;;;8.17;3.80;;;21.30;99.90;;;;;;5116662;28;20047;-72
2022/06/24 02:45:45;;;;;;;6.70;4.13;;;21.20;99.90;;;;;;5081262;28;20820;-73
2022/06/24 02:48:12;;;;;;;7.13;4.00;;;21.20;99.90;;;;;;5116842;28;20153;-73
2022/06/24 02:50:40;;;;;;;6.93;4.10;;;21.20;99.90;;;;;;5098056;28;20035;-73
2022/06/24 02:53:06;;;;;;;6.90;3.80;;;21.10;99.90;;;;;;5116511;28;20061;-71
2022/06/24 02:55:31;;;;;;;5.53;4.10;;;21.00;99.90;;;;;;5098461;28;20368;-71
2022/06/24 02:57:57;;;;;;;8.07;4.23;;;21.00;99.90;;;;;;5116051;28;20054;-71
2022/06/24 03:00:23;;;;;;;5.60;3.67;;;20.90;99.90;;;;;;5116285;28;20506;-71
2022/06/24 03:02:48;;;;;;;7.20;3.93;;;20.90;99.90;;;;;;5098001;28;20108;-71
2022/06/24 03:05:14;;;;;;;8.13;4.37;;;20.80;99.90;;;;;;5098564;28;20044;-71
2022/06/24 03:07:40;;;;;;;8.73;4.17;;;20.80;99.90;;;;;;5115411;28;20391;-72
2022/06/24 03:10:06;;;;;;;5.40;3.60;;;20.80;99.90;;;;;;5098267;28;20139;-71
2022/06/24 03:12:32;;;;;;;7.10;4.07;;;20.70;99.90;;;;;;5097994;28;20055;-72
2022/06/24 03:14:57;;;;;;;6.53;4.00;;;20.80;99.90;;;;;;5115786;28;20453;-72
2022/06/24 03:17:23;;;;;;;7.00;4.63;;;20.80;99.90;;;;;;5116392;28;20044;-72
2022/06/24 03:19:49;;;;;;;10.73;4.53;;;20.80;99.90;;;;;;5115710;28;20479;-73
2022/06/24 03:22:14;;;;;;;8.80;4.77;;;20.80;99.90;;;;;;5115878;28;20047;-72
2022/06/24 03:24:40;;;;;;;7.27;3.90;;;20.80;99.90;;;;;;5115764;28;20073;-75
2022/06/24 03:27:06;;;;;;;9.50;4.20;;;20.80;99.90;;;;;;5115836;28;20104;-72
2022/06/24 03:29:32;;;;;;;7.30;4.87;;;20.80;99.90;;;;;;5097542;28;20039;-72
2022/06/24 03:31:58;;;;;;;7.00;4.73;;;20.80;99.90;;;;;;5115462;28;20532;-72
2022/06/24 03:34:24;;;;;;;6.53;4.80;;;20.80;99.90;;;;;;5115645;28;20086;-72
2022/06/24 03:36:50;;;;;;;7.73;4.33;;;20.80;99.90;;;;;;5115206;28;20062;-73
2022/06/24 03:39:15;;;;;;;5.87;4.27;;;20.90;99.90;;;;;;5115530;28;20173;-72
2022/06/24 03:41:41;;;;;;;9.43;4.60;;;20.80;99.90;;;;;;5115533;28;20048;-72
2022/06/24 03:44:07;;;;;;;11.17;5.37;;;20.80;99.90;;;;;;5115178;28;20040;-73
2022/06/24 03:46:33;;;;;;;12.60;4.70;;;20.80;99.90;;;;;;5115473;28;20136;-72
2022/06/24 03:48:58;;;;;;;6.67;4.70;;;20.90;99.90;;;;;;5115080;28;20044;-72
2022/06/24 03:51:24;;;;;;;7.03;4.67;;;20.90;99.90;;;;;;5115290;28;20097;-73
2022/06/24 03:53:50;;;;;;;6.93;5.20;;;20.90;99.90;;;;;;5097067;28;20052;-72
2022/06/24 03:56:15;;;;;;;9.07;6.23;;;20.90;99.90;;;;;;5115208;28;20039;-72
2022/06/24 03:58:41;;;;;;;6.63;5.37;;;20.90;99.90;;;;;;5115214;28;20422;-72
2022/06/24 04:01:07;;;;;;;9.53;6.43;;;20.90;99.90;;;;;;5114893;28;20096;-72
2022/06/24 04:03:33;;;;;;;10.00;5.40;;;21.00;99.90;;;;;;5115150;28;20079;-72
2022/06/24 04:05:59;;;;;;;9.50;6.97;;;21.10;99.90;;;;;;5114748;28;20464;-72
2022/06/24 04:08:24;;;;;;;10.53;8.00;;;21.10;99.90;;;;;;5115089;28;20045;-72
2022/06/24 04:10:51;;;;;;;13.20;9.53;;;21.10;99.90;;;;;;5114993;28;20039;-73
2022/06/24 04:13:17;;;;;;;16.87;10.27;;;21.10;99.90;;;;;;5114882;28;20097;-72
2022/06/24 04:15:51;;;;;;;18.87;15.37;;;21.20;99.90;;;;;;5114983;28;20044;-72
2022/06/24 04:18:17;;;;;;;24.52;15.88;;;21.30;99.90;;;;;;5115005;28;20043;-72
2022/06/24 04:20:42;;;;;;;19.50;15.30;;;21.30;99.90;;;;;;5113685;28;20537;-72
2022/06/24 04:23:08;;;;;;;22.97;16.70;;;21.30;99.90;;;;;;5114487;28;20047;-72
2022/06/24 04:25:34;;;;;;;21.30;15.83;;;21.40;99.90;;;;;;5096752;28;20547;-72
2022/06/24 04:28:01;;;;;;;16.60;14.57;;;21.40;99.90;;;;;;5114229;28;20075;-72
2022/06/24 04:30:27;;;;;;;18.27;14.37;;;21.40;99.90;;;;;;5114550;28;20081;-72
2022/06/24 04:32:53;;;;;;;20.03;11.97;;;21.40;99.90;;;;;;5114258;28;20047;-72
2022/06/24 04:35:19;;;;;;;14.50;11.10;;;21.40;99.90;;;;;;5114427;28;20053;-72
2022/06/24 04:37:45;;;;;;;13.27;9.23;;;21.30;99.90;;;;;;5114450;28;20048;-72
2022/06/24 04:40:12;;;;;;;9.63;8.50;;;21.30;99.90;;;;;;5114092;28;20445;-72
2022/06/24 04:42:39;;;;;;;11.73;8.63;;;21.20;99.90;;;;;;5114352;28;20095;-72
2022/06/24 04:45:06;;;;;;;14.77;9.13;;;21.20;99.90;;;;;;5114102;28;20047;-72
2022/06/24 04:47:32;;;;;;;11.57;7.77;;;21.10;99.90;;;;;;5096068;28;20173;-72
2022/06/24 04:49:58;;;;;;;9.87;6.07;;;21.20;99.90;;;;;;5095881;28;20130;-73
2022/06/24 04:52:23;;;;;;;8.23;5.00;;;21.20;99.90;;;;;;5114266;28;20051;-72
2022/06/24 04:54:50;;;;;;;8.63;4.00;;;21.20;99.90;;;;;;5113885;28;20048;-72
2022/06/24 04:57:16;;;;;;;6.87;4.20;;;21.20;99.90;;;;;;5113793;28;20491;-72
2022/06/24 04:59:42;;;;;;;8.47;4.17;;;21.10;99.90;;;;;;5114023;28;20126;-72
2022/06/24 05:02:08;;;;;;;7.73;3.90;;;21.10;99.90;;;;;;5114047;28;20151;-72
2022/06/24 05:04:35;;;;;;;8.00;4.00;;;21.00;99.90;;;;;;5114099;28;20047;-72
2022/06/24 05:07:01;;;;;;;8.20;3.80;;;21.00;99.90;;;;;;5113621;28;20132;-72
2022/06/24 05:09:27;;;;;;;6.77;3.97;;;21.00;99.90;;;;;;5114008;28;20035;-72
2022/06/24 05:11:53;;;;;;;7.07;3.70;;;21.00;99.90;;;;;;5113935;28;20059;-75
2022/06/24 05:14:19;;;;;;;9.43;3.93;;;21.00;99.90;;;;;;5113831;28;20047;-72
2022/06/24 05:16:45;;;;;;;7.40;3.80;;;20.90;99.90;;;;;;5113860;28;20039;-72
2022/06/24 05:19:11;;;;;;;6.47;3.73;;;20.90;99.90;;;;;;5113409;28;20484;-72
2022/06/24 05:21:37;;;;;;;8.00;3.83;;;21.00;99.90;;;;;;5113683;28;20484;-72
2022/06/24 05:24:03;;;;;;;6.53;3.70;;;21.00;99.90;;;;;;5113453;28;20055;-72
2022/06/24 05:26:29;;;;;;;6.93;3.80;;;21.00;99.90;;;;;;5113653;28;20087;-72
2022/06/24 05:28:54;;;;;;;12.23;4.90;;;21.10;99.90;;;;;;5095422;28;20519;-77
2022/06/24 05:31:20;;;;;;;12.67;4.33;;;21.10;99.90;;;;;;5095243;28;20047;-73
2022/06/24 05:33:46;;;;;;;5.87;3.77;;;21.10;99.90;;;;;;5113797;28;20126;-72
2022/06/24 05:36:12;;;;;;;6.73;3.40;;;21.10;99.90;;;;;;5095109;28;20075;-72
2022/06/24 05:38:37;;;;;;;8.87;3.37;;;21.20;99.90;;;;;;5113172;28;20122;-72
2022/06/24 05:41:03;;;;;;;7.97;4.00;;;21.20;99.90;;;;;;5095024;28;20051;-72
2022/06/24 05:43:30;;;;;;;6.43;3.90;;;21.10;99.90;;;;;;5113392;28;20058;-72
2022/06/24 05:45:56;;;;;;;6.43;3.57;;;21.10;99.90;;;;;;5113279;28;20060;-72
2022/06/24 05:48:21;;;;;;;7.43;3.70;;;21.20;99.90;;;;;;5113125;28;20527;-72
2022/06/24 05:50:48;;;;;;;7.97;4.03;;;21.20;99.90;;;;;;5095495;28;20044;-72
2022/06/24 05:55:59;;;;;;;7.50;3.43;;;21.20;99.90;;;;;;5113525;28;20082;-74
2022/06/24 05:58:29;;;;;;;7.27;3.60;;;21.20;99.90;;;;;;5113504;28;20393;-72
2022/06/24 06:00:55;;;;;;;7.90;3.70;;;21.10;99.90;;;;;;5112981;28;20504;-72
2022/06/24 06:03:26;;;;;;;9.13;4.10;;;21.10;99.90;;;;;;5112930;28;20050;-72
2022/06/24 06:05:52;;;;;;;8.70;4.20;;;21.10;99.90;;;;;;5113090;28;20396;-72
2022/06/24 06:08:18;;;;;;;7.23;3.50;;;21.00;99.90;;;;;;5112860;28;20044;-73
2022/06/24 06:10:44;;;;;;;8.87;3.90;;;21.00;99.90;;;;;;5094876;28;20047;-72
2022/06/24 06:13:14;;;;;;;7.40;3.40;;;20.90;99.90;;;;;;5077830;28;20130;-73
2022/06/24 06:15:41;;;;;;;6.97;3.67;;;20.90;99.90;;;;;;5113314;28;20055;-72
2022/06/24 06:18:07;;;;;;;7.63;3.27;;;20.90;99.90;;;;;;5112872;28;20097;-73
2022/06/24 06:20:32;;;;;;;7.93;3.33;;;20.90;99.90;;;;;;5113088;28;20044;-73
2022/06/24 06:22:58;;;;;;;10.53;4.27;;;20.80;99.90;;;;;;5112697;28;20403;-72
2022/06/24 06:25:24;;;;;;;17.77;6.13;;;20.80;99.90;;;;;;5094694;28;20129;-71
2022/06/24 06:27:50;;;;;;;8.73;3.90;;;20.80;99.90;;;;;;5112959;28;20075;-71
2022/06/24 06:30:16;;;;;;;7.47;3.90;;;20.80;99.90;;;;;;5112765;28;20040;-71
2022/06/24 06:32:42;;;;;;;8.20;3.87;;;20.80;99.90;;;;;;5113171;28;20052;-72
2022/06/24 06:35:08;;;;;;;7.43;3.53;;;20.80;99.90;;;;;;5112749;28;20387;-72
2022/06/24 06:37:34;;;;;;;8.83;3.43;;;20.80;99.90;;;;;;5113014;28;20079;-72
2022/06/24 06:40:00;;;;;;;8.83;4.00;;;20.80;99.90;;;;;;5112978;28;20043;-72
2022/06/24 06:42:26;;;;;;;9.03;3.87;;;20.80;99.90;;;;;;5112662;28;20445;-72
2022/06/24 06:44:52;;;;;;;7.17;3.63;;;20.90;99.90;;;;;;5116099;28;20438;-72
2022/06/24 06:47:18;;;;;;;10.57;4.00;;;20.90;99.90;;;;;;5116527;28;20055;-73
2022/06/24 06:49:44;;;;;;;8.90;3.70;;;21.00;99.90;;;;;;5116516;28;20130;-73
2022/06/24 06:52:10;;;;;;;11.80;3.73;;;21.00;99.90;;;;;;5116314;28;20398;-73
2022/06/24 06:54:37;;;;;;;5.67;2.87;;;21.00;99.90;;;;;;5098346;28;20043;-72
2022/06/24 06:57:03;;;;;;;7.90;3.17;;;21.00;99.90;;;;;;5098628;28;20127;-72
2022/06/24 06:59:29;;;;;;;6.87;3.03;;;21.00;99.90;;;;;;5116110;28;20442;-72
2022/06/24 07:01:55;;;;;;;7.70;3.40;;;20.90;99.90;;;;;;5116426;28;20039;-72
2022/06/24 07:04:21;;;;;;;9.67;3.00;;;20.90;99.90;;;;;;5098040;28;20483;-73
2022/06/24 07:06:48;;;;;;;6.70;3.40;;;20.90;99.90;;;;;;5116305;28;20044;-73
2022/06/24 07:09:14;;;;;;;8.23;3.13;;;20.90;99.90;;;;;;5115905;28;20438;-72
2022/06/24 07:11:40;;;;;;;7.80;3.30;;;20.80;99.90;;;;;;5116207;28;20096;-72
2022/06/24 07:14:05;;;;;;;5.67;3.17;;;20.80;99.90;;;;;;5097717;28;20043;-72
2022/06/24 07:16:31;;;;;;;7.20;3.27;;;20.80;99.90;;;;;;5097891;28;20043;-72
2022/06/24 07:18:57;;;;;;;9.27;3.93;;;20.80;99.90;;;;;;5116058;28;20043;-72
2022/06/24 07:21:22;;;;;;;8.07;3.50;;;20.80;99.90;;;;;;5115678;28;20051;-72
2022/06/24 07:23:48;;;;;;;7.70;3.83;;;20.80;99.90;;;;;;5115953;28;20126;-72
2022/06/24 07:26:14;;;;;;;6.73;3.47;;;20.80;99.90;;;;;;5115689;28;20468;-72
2022/06/24 07:28:39;;;;;;;9.00;3.80;;;20.80;99.90;;;;;;5116078;28;20035;-72
2022/06/24 07:31:19;;;;;;;8.23;4.13;;;20.80;99.90;;;;;;5115800;28;20047;-72
2022/06/24 07:33:45;;;;;;;5.23;3.20;;;20.70;99.90;;;;;;5097595;28;20079;-72
2022/06/24 07:36:11;;;;;;;9.27;4.60;;;;;;;;;;5115526;28;20075;-73
2022/06/24 07:38:37;;;;;;;8.47;3.83;;;20.60;99.90;;;;;;5115650;28;20036;-73
2022/06/24 07:41:03;;;;;;;9.43;4.13;;;20.60;99.90;;;;;;5115606;28;20047;-72
2022/06/24 07:43:29;;;;;;;11.77;4.97;;;20.60;99.90;;;;;;5115351;28;20531;-72
2022/06/24 07:45:55;;;;;;;8.90;4.93;;;20.60;99.90;;;;;;5115259;28;20056;-73
2022/06/24 07:48:21;;;;;;;10.60;4.50;;;20.60;99.90;;;;;;5115167;28;20043;-73
2022/06/24 07:50:47;;;;;;;10.27;4.70;;;20.70;99.90;;;;;;5115498;28;20047;-71
2022/06/24 07:53:13;;;;;;;8.53;4.37;;;20.70;99.90;;;;;;5097152;28;20043;-72
2022/06/24 07:58:23;;;;;;;8.98;4.05;;;20.80;99.90;;;;;;5115076;28;20044;-71
2022/06/24 08:00:49;;;;;;;10.83;4.93;;;20.80;99.90;;;;;;5115232;28;20058;-73
2022/06/24 08:03:15;;;;;;;11.27;5.07;;;20.80;99.90;;;;;;5114930;28;20051;-71
2022/06/24 08:05:41;;;;;;;6.93;4.67;;;20.80;99.90;;;;;;5115091;28;20475;-71
2022/06/24 08:08:07;;;;;;;10.50;5.10;;;20.70;99.90;;;;;;5115075;28;20047;-71
2022/06/24 08:10:33;;;;;;;7.70;4.77;;;20.70;99.90;;;;;;5114740;28;20542;-71
2022/06/24 08:12:59;;;;;;;6.23;4.40;;;20.70;99.90;;;;;;5115020;28;20057;-71
2022/06/24 08:15:24;;;;;;;9.33;4.93;;;20.70;99.90;;;;;;5114823;28;20510;-71
2022/06/24 08:17:50;;;;;;;8.00;5.40;;;20.80;99.90;;;;;;5115002;28;20035;-71
2022/06/24 08:20:16;;;;;;;9.47;5.17;;;20.80;99.90;;;;;;5114784;28;20499;-71
2022/06/24 08:22:42;;;;;;;7.97;4.57;;;20.80;99.90;;;;;;5114855;28;20074;-71
2022/06/24 08:25:08;;;;;;;11.00;4.83;;;20.90;99.90;;;;;;5080165;28;20463;-71
2022/06/24 08:27:34;;;;;;;11.13;5.30;;;20.90;99.90;;;;;;5114393;28;20177;-72
2022/06/24 08:30:00;;;;;;;8.27;4.53;;;20.90;99.90;;;;;;5114777;28;20118;-71
2022/06/24 08:32:26;;;;;;;10.27;6.00;;;20.90;99.90;;;;;;5096476;28;20052;-71
2022/06/24 08:34:51;;;;;;;7.83;4.83;;;20.90;99.90;;;;;;5114652;28;20387;-71
2022/06/24 08:37:17;;;;;;;9.63;5.20;;;20.90;99.90;;;;;;5095719;28;20539;-74
2022/06/24 08:39:43;;;;;;;8.93;5.27;;;20.80;99.90;;;;;;5102787;28;20120;-81
2022/06/24 08:42:12;;;;;;;7.50;4.83;;;20.80;99.90;;;;;;5102037;28;20218;-81
2022/06/24 08:44:38;;;;;;;10.73;5.43;;;20.80;99.90;;;;;;5101848;28;20067;-82
2022/06/24 08:47:04;;;;;;;8.37;5.83;;;20.80;99.90;;;;;;5089114;28;20048;-80
2022/06/24 08:49:33;;;;;;;8.93;5.70;;;20.70;99.90;;;;;;5084650;28;20059;-82
2022/06/24 08:52:01;;;;;;;9.70;5.73;;;20.70;99.90;;;;;;5108580;28;20047;-80
2022/06/24 08:54:30;;;;;;;7.37;5.70;;;20.70;99.90;;;;;;5103748;28;20062;-80
2022/06/24 08:56:57;;;;;;;7.30;6.07;;;20.70;99.90;;;;;;5099153;28;20052;-76
2022/06/24 08:59:23;;;;;;;11.03;6.63;;;20.70;99.90;;;;;;5093465;28;20044;-79
2022/06/24 09:01:49;;;;;;;9.43;7.20;;;20.70;99.90;;;;;;5094090;28;20498;-79
2022/06/24 09:04:14;;;;;;;12.30;8.73;;;20.70;99.90;;;;;;5075650;28;20051;-70
2022/06/24 09:06:41;;;;;;;11.10;8.17;;;20.70;99.90;;;;;;5098127;28;20103;-70
2022/06/24 09:09:07;;;;;;;11.30;8.50;;;20.70;99.90;;;;;;5098914;28;20162;-70
2022/06/24 09:11:41;;;;;;;11.33;8.93;;;20.80;99.90;;;;;;5093390;28;20043;-70
2022/06/24 09:14:08;;;;;;;14.10;8.48;;;20.80;99.90;;;;;;5093601;28;20051;-67
2022/06/24 09:16:38;;;;;;;11.33;8.70;;;20.70;99.90;;;;;;5093233;28;20141;-67
2022/06/24 09:19:05;;;;;;;10.33;7.30;;;20.70;99.90;;;;;;5093495;28;20036;-67
2022/06/24 09:21:41;;;;;;;10.70;7.37;;;20.60;99.90;;;;;;5093233;28;20392;-67
2022/06/24 09:24:08;;;;;;;10.33;7.07;;;20.50;99.90;;;;;;5075807;28;20090;-67
2022/06/24 09:26:39;;;;;;;15.73;7.00;;;20.50;99.90;;;;;;5093095;28;20044;-70
2022/06/24 09:29:08;;;;;;;24.07;7.47;;;20.40;99.90;;;;;;5075435;28;20395;-67
2022/06/24 09:31:34;;;;;;;15.57;6.03;;;20.30;99.90;;;;;;5093117;28;20127;-67
2022/06/24 09:34:14;;;;;;;11.67;5.70;;;20.20;99.90;;;;;;5101482;28;20044;-68
2022/06/24 09:36:42;;;;;;;13.83;5.40;;;20.10;99.90;;;;;;5098775;28;20047;-68
2022/06/24 09:39:14;;;;;;;13.37;5.37;;;19.90;99.90;;;;;;5110030;28;20041;-70
2022/06/24 09:41:51;;;;;;;14.57;5.37;;;19.80;99.90;;;;;;5113343;28;20047;-69
2022/06/24 09:44:18;;;;;;;11.10;5.27;;;19.80;99.90;;;;;;5113555;28;20043;-70
2022/06/24 09:46:44;;;;;;;23.33;5.37;;;19.70;99.90;;;;;;5094834;28;20061;-69
2022/06/24 09:49:15;;;;;;;10.83;4.47;;;19.70;99.90;;;;;;5113388;28;20087;-69
2022/06/24 09:51:43;;;;;;;6.60;4.20;;;19.70;99.90;;;;;;5113209;28;20048;-70
2022/06/24 09:54:09;;;;;;;8.03;4.10;;;19.60;99.90;;;;;;5113389;28;20055;-71
2022/06/24 09:56:37;;;;;;;7.23;3.67;;;19.60;99.90;;;;;;5113138;28;20043;-71
2022/06/24 10:01:49;;;;;;;7.28;3.65;;;19.50;99.90;;;;;;5113098;28;20044;-70
2022/06/24 10:04:20;;;;;;;15.73;3.63;;;19.40;99.90;;;;;;5113332;28;20043;-70
2022/06/24 10:06:48;;;;;;;8.40;4.07;;;19.40;99.90;;;;;;5113070;28;20051;-68
2022/06/24 10:09:14;;;;;;;15.00;4.73;;;19.40;99.90;;;;;;5113216;28;20054;-70
2022/06/24 10:11:45;;;;;;;9.27;4.10;;;19.40;99.90;;;;;;5094726;28;20052;-71
2022/06/24 10:14:12;;;;;;;8.40;4.13;;;19.30;99.90;;;;;;5095297;28;20059;-73
2022/06/24 10:16:39;;;;;;;7.80;4.77;;;;;;;;;;5112968;28;20130;-70
2022/06/24 10:19:06;;;;;;;8.63;4.43;;;19.40;99.90;;;;;;5117004;28;20497;-70
2022/06/24 10:21:32;;;;;;;8.33;4.33;;;19.40;99.90;;;;;;5116985;28;20083;-71
2022/06/24 10:23:58;;;;;;;6.50;3.67;;;19.40;99.90;;;;;;5117313;28;20083;-70
2022/06/24 10:26:26;;;;;;;7.93;3.97;;;19.40;99.90;;;;;;5099136;28;20071;-74
2022/06/24 10:29:04;;;;;;;11.90;4.87;;;19.40;99.90;;;;;;5116730;28;20040;-71
2022/06/24 10:31:42;;;;;;;7.83;4.40;;;19.40;99.90;;;;;;5081132;28;20048;-71
2022/06/24 10:34:28;;;;;;;7.07;4.80;;;19.50;99.90;;;;;;5115821;28;20051;-70
2022/06/24 10:37:16;;;;;;;7.03;3.77;;;19.50;99.90;;;;;;5116710;28;20055;-71
2022/06/24 10:39:47;;;;;;;7.00;4.43;;;19.60;99.90;;;;;;5103579;28;20080;-71
2022/06/24 10:42:20;;;;;;;6.27;3.87;;;19.60;99.90;;;;;;5116977;28;20115;-71
2022/06/24 10:44:56;;;;;;;7.77;3.50;;;19.60;99.90;;;;;;5116878;28;20048;-71
2022/06/24 10:47:24;;;;;;;5.70;4.20;;;19.60;99.90;;;;;;5117053;28;20074;-71
2022/06/24 10:49:54;;;;;;;6.87;4.23;;;19.60;99.90;;;;;;5116607;28;20087;-71
2022/06/24 10:52:29;;;;;;;6.83;4.60;;;19.60;99.90;;;;;;5116723;28;20454;-72
2022/06/24 10:57:43;;;;;;;8.10;4.90;;;19.70;99.90;;;;;;5116485;28;20051;-72
2022/06/24 11:00:17;;;;;;;7.47;4.67;;;19.70;99.90;;;;;;5116301;28;20430;-73
2022/06/24 11:02:45;;;;;;;6.15;4.50;;;19.70;99.90;;;;;;5116547;28;20122;-73
2022/06/24 11:05:35;;;;;;;8.43;5.10;;;19.80;99.90;;;;;;5098327;28;20120;-73
2022/06/24 11:08:01;;;;;;;8.37;4.73;;;19.90;99.90;;;;;;5106539;28;20087;-73
2022/06/24 11:10:30;;;;;;;8.00;4.80;;;20.00;99.90;;;;;;5098432;28;20044;-73
2022/06/24 11:12:58;;;;;;;6.73;4.60;;;20.00;99.90;;;;;;5116193;28;20052;-73
2022/06/24 11:15:43;;;;;;;8.50;4.80;;;20.10;99.90;;;;;;5116351;28;20051;-73
2022/06/24 11:18:15;;;;;;;7.43;4.63;;;20.10;99.90;;;;;;5116318;28;20105;-73
2022/06/24 11:20:47;;;;;;;7.37;5.40;;;20.20;99.90;;;;;;5115888;28;20055;-76
2022/06/24 11:23:15;;;;;;;7.23;4.83;;;20.20;99.90;;;;;;5116037;28;20496;-76
2022/06/24 11:25:46;;;;;;;7.83;5.50;;;20.20;99.90;;;;;;5115791;28;20070;-76
2022/06/24 11:28:25;;;;;;;7.57;5.30;;;20.20;99.90;;;;;;5116007;28;20040;-76
2022/06/24 11:30:53;;;;;;;6.50;5.03;;;20.20;99.90;;;;;;5114979;28;20076;-75
2022/06/24 11:33:20;;;;;;;7.73;5.40;;;20.30;99.90;;;;;;5115857;28;20055;-74
2022/06/24 11:35:47;;;;;;;7.10;5.40;;;20.30;99.90;;;;;;5115575;28;20055;-72
2022/06/24 11:38:14;;;;;;;7.80;5.60;;;20.30;99.90;;;;;;5115761;28;20051;-72
2022/06/24 11:40:40;;;;;;;9.47;6.10;;;20.30;99.90;;;;;;5115596;28;20048;-69
2022/06/24 11:43:11;;;;;;;6.67;5.40;;;20.40;99.90;;;;;;5115707;28;20047;-72
2022/06/24 11:45:44;;;;;;;7.30;5.27;;;20.50;99.90;;;;;;5115574;28;20085;-74
2022/06/24 11:48:12;;;;;;;8.90;6.43;;;20.50;99.90;;;;;;5115793;28;20151;-71
2022/06/24 11:50:39;;;;;;;10.27;7.03;;;20.60;99.90;;;;;;5115434;28;20070;-76
2022/06/24 11:53:06;;;;;;;8.77;6.63;;;20.70;99.90;;;;;;5097439;28;20491;-70
2022/06/24 11:55:37;;;;;;;20.40;18.40;;;20.90;99.90;;;;;;5115447;28;20055;-70
2022/06/24 11:58:05;;;;;;;21.00;18.90;;;21.00;99.90;;;;;;5115322;28;20048;-73
2022/06/24 12:00:37;;;;;;;23.90;21.60;;;21.20;99.90;;;;;;5087319;28;20113;-71
2022/06/24 12:03:06;;;;;;;23.90;21.67;;;21.30;99.90;;;;;;5100706;28;20047;-70
2022/06/24 12:05:33;;;;;;;24.87;22.60;;;21.40;99.90;;;;;;5103670;28;20040;-72
2022/06/24 12:08:01;;;;;;;23.40;21.20;;;21.50;99.90;;;;;;5095024;28;20091;-72
2022/06/24 12:10:27;;;;;;;24.10;21.70;;;21.50;99.90;;;;;;5114049;28;20043;-72
2022/06/24 12:13:07;;;;;;;22.33;20.13;;;21.60;99.90;;;;;;5114781;28;20044;-72
2022/06/24 12:15:52;;;;;;;20.77;18.80;;;21.60;99.90;;;;;;5115190;28;20043;-72
2022/06/24 12:18:22;;;;;;;19.40;17.40;;;21.80;99.90;;;;;;5097016;28;20076;-72
2022/06/24 12:21:06;;;;;;;19.67;17.60;;;21.90;99.90;;;;;;5096918;28;20091;-72
2022/06/24 12:23:44;;;;;;;18.83;16.93;;;22.10;99.90;;;;;;5115195;28;20043;-72
2022/06/24 12:26:18;;;;;;;16.10;14.40;;;22.20;99.90;;;;;;5115180;28;20051;-72
2022/06/24 12:28:45;;;;;;;15.98;14.48;;;22.30;99.90;;;;;;5114772;28;20079;-72
2022/06/24 12:31:12;;;;;;;15.10;13.70;;;22.30;99.90;;;;;;5114539;28;20534;-72
2022/06/24 12:33:43;;;;;;;16.13;14.53;;;22.30;99.90;;;;;;5114833;28;20094;-72
2022/06/24 12:36:17;;;;;;;15.00;13.23;;;22.30;99.90;;;;;;5114750;28;20051;-72
2022/06/24 12:39:06;;;;;;;16.00;14.47;;;22.30;99.90;;;;;;5114793;28;20040;-75
2022/06/24 12:41:48;;;;;;;15.40;13.80;;;22.30;99.90;;;;;;5113782;28;20044;-72
2022/06/24 12:44:15;;;;;;;15.97;14.00;;;22.30;99.90;;;;;;5114899;28;20477;-72
2022/06/24 12:52:36;;;;;;;14.17;12.83;;;22.40;99.90;;;;;;5114469;28;20051;-72
2022/06/24 12:55:04;;;;;;;15.97;11.80;;;22.40;99.90;;;;;;5114218;28;20054;-72
2022/06/24 12:57:30;;;;;;;13.50;11.73;;;22.30;99.90;;;;;;5114506;28;20421;-72
2022/06/24 12:59:57;;;;;;;12.73;11.43;;;22.40;99.90;;;;;;5114056;28;20047;-72
2022/06/24 13:02:22;;;;;;;12.73;11.43;;;22.40;99.90;;;;;;5114350;28;20086;-72
2022/06/24 13:04:48;;;;;;;14.70;10.43;;;22.50;99.90;;;;;;5113982;28;20499;-73
2022/06/24 13:07:14;;;;;;;14.33;10.73;;;22.50;99.90;;;;;;5114125;28;20395;-72
2022/06/24 13:09:39;;;;;;;12.27;10.03;;;22.60;99.90;;;;;;5114027;28;20047;-72